sensor_id;sensor_type;location;lat;lon;timestamp;pressure;altitude;pressure_sealevel;temperature;humidity
28935;BME280;16044;52.726;-2.108;2023-03-04T00:02:18;102214.31;;;4.98;75.69
28935;BME280;16044;52.726;-2.108;2023-03-04T00:04:45;102214.50;;;4.95;75.79
28935;BME280;16044;52.726;-2.108;2023-03-04T00:07:12;102215.47;;;4.94;75.96
28935;BME280;16044;52.726;-2.108;2023-03-04T00:09:43;102219.97;;;4.93;75.93
28935;BME280;16044;52.726;-2.108;2023-03-04T00:12:12;102218.16;;;4.94;76.01
28935;BME280;16044;52.726;-2.108;2023-03-04T00:14:39;102220.94;;;4.92;76.04
28935;BME280;16044;52.726;-2.108;2023-03-04T00:17:06;102215.56;;;4.92;76.05
28935;BME280;16044;52.726;-2.108;2023-03-04T00:19:34;102222.00;;;4.89;76.26
28935;BME280;16044;52.726;-2.108;2023-03-04T00:22:02;102227.19;;;4.93;76.14
28935;BME280;16044;52.726;-2.108;2023-03-04T00:24:30;102221.13;;;4.89;76.21
28935;BME280;16044;52.726;-2.108;2023-03-04T00:26:58;102220.09;;;4.92;75.52
28935;BME280;16044;52.726;-2.108;2023-03-04T00:29:25;102223.16;;;4.85;75.93
28935;BME280;16044;52.726;-2.108;2023-03-04T00:31:52;102221.91;;;4.91;75.18
28935;BME280;16044;52.726;-2.108;2023-03-04T00:34:19;102221.44;;;4.84;74.95
28935;BME280;16044;52.726;-2.108;2023-03-04T00:36:46;102220.47;;;4.85;74.94
28935;BME280;16044;52.726;-2.108;2023-03-04T00:39:14;102219.78;;;4.82;74.24
28935;BME280;16044;52.726;-2.108;2023-03-04T00:41:41;102218.06;;;4.81;74.42
28935;BME280;16044;52.726;-2.108;2023-03-04T00:44:08;102215.22;;;4.84;73.72
28935;BME280;16044;52.726;-2.108;2023-03-04T00:46:35;102217.91;;;4.84;73.92
28935;BME280;16044;52.726;-2.108;2023-03-04T00:49:02;102225.16;;;4.82;74.25
28935;BME280;16044;52.726;-2.108;2023-03-04T00:51:28;102219.91;;;4.80;74.12
28935;BME280;16044;52.726;-2.108;2023-03-04T00:53:55;102217.00;;;4.83;74.17
28935;BME280;16044;52.726;-2.108;2023-03-04T00:56:26;102217.00;;;4.83;74.18
28935;BME280;16044;52.726;-2.108;2023-03-04T00:58:53;102218.75;;;4.84;73.99
28935;BME280;16044;52.726;-2.108;2023-03-04T01:01:20;102223.34;;;4.82;73.77
28935;BME280;16044;52.726;-2.108;2023-03-04T01:03:47;102222.59;;;4.80;73.91
28935;BME280;16044;52.726;-2.108;2023-03-04T01:06:14;102211.94;;;4.79;73.85
28935;BME280;16044;52.726;-2.108;2023-03-04T01:08:41;102213.78;;;4.78;74.04
28935;BME280;16044;52.726;-2.108;2023-03-04T01:11:08;102219.16;;;4.78;74.23
28935;BME280;16044;52.726;-2.108;2023-03-04T01:13:36;102223.72;;;4.76;74.66
28935;BME280;16044;52.726;-2.108;2023-03-04T01:16:03;102225.56;;;4.76;74.74
28935;BME280;16044;52.726;-2.108;2023-03-04T01:18:30;102227.22;;;4.78;74.51
28935;BME280;16044;52.726;-2.108;2023-03-04T01:20:58;102219.41;;;4.74;74.75
28935;BME280;16044;52.726;-2.108;2023-03-04T01:23:25;102217.59;;;4.74;74.98
28935;BME280;16044;52.726;-2.108;2023-03-04T01:25:51;102220.28;;;4.74;75.12
28935;BME280;16044;52.726;-2.108;2023-03-04T01:28:18;102208.75;;;4.72;75.43
28935;BME280;16044;52.726;-2.108;2023-03-04T01:30:45;102223.84;;;4.75;75.56
28935;BME280;16044;52.726;-2.108;2023-03-04T01:33:12;102209.66;;;4.73;75.04
28935;BME280;16044;52.726;-2.108;2023-03-04T01:35:39;102217.13;;;4.67;75.32
28935;BME280;16044;52.726;-2.108;2023-03-04T01:38:06;102217.97;;;4.68;75.48
28935;BME280;16044;52.726;-2.108;2023-03-04T01:40:33;102208.09;;;4.68;75.32
28935;BME280;16044;52.726;-2.108;2023-03-04T01:43:00;102210.09;;;4.65;75.34
28935;BME280;16044;52.726;-2.108;2023-03-04T01:45:28;102203.09;;;4.62;75.49
28935;BME280;16044;52.726;-2.108;2023-03-04T01:47:55;102203.97;;;4.63;75.30
28935;BME280;16044;52.726;-2.108;2023-03-04T01:50:27;102204.94;;;4.62;75.30
28935;BME280;16044;52.726;-2.108;2023-03-04T01:52:58;102207.63;;;4.62;74.73
28935;BME280;16044;52.726;-2.108;2023-03-04T01:55:26;102201.66;;;4.57;74.64
28935;BME280;16044;52.726;-2.108;2023-03-04T01:57:54;102201.09;;;4.52;74.83
28935;BME280;16044;52.726;-2.108;2023-03-04T02:00:26;102198.78;;;4.45;75.09
28935;BME280;16044;52.726;-2.108;2023-03-04T02:02:56;102198.31;;;4.53;74.46
28935;BME280;16044;52.726;-2.108;2023-03-04T02:05:36;102196.09;;;4.45;74.46
28935;BME280;16044;52.726;-2.108;2023-03-04T02:08:05;102199.56;;;4.47;74.56
28935;BME280;16044;52.726;-2.108;2023-03-04T02:10:33;102199.56;;;4.47;74.60
28935;BME280;16044;52.726;-2.108;2023-03-04T02:13:01;102205.81;;;4.48;74.58
28935;BME280;16044;52.726;-2.108;2023-03-04T02:15:29;102198.03;;;4.43;74.12
28935;BME280;16044;52.726;-2.108;2023-03-04T02:17:56;102195.41;;;4.42;74.21
28935;BME280;16044;52.726;-2.108;2023-03-04T02:23:13;102193.03;;;4.37;73.61
28935;BME280;16044;52.726;-2.108;2023-03-04T02:28:43;102187.84;;;4.34;73.84
28935;BME280;16044;52.726;-2.108;2023-03-04T02:31:39;102191.69;;;4.30;74.17
28935;BME280;16044;52.726;-2.108;2023-03-04T02:34:14;102190.16;;;4.26;74.40
28935;BME280;16044;52.726;-2.108;2023-03-04T02:36:43;102193.41;;;4.31;74.15
28935;BME280;16044;52.726;-2.108;2023-03-04T02:39:22;102187.47;;;4.26;74.27
28935;BME280;16044;52.726;-2.108;2023-03-04T02:42:02;102196.38;;;4.26;74.00
28935;BME280;16044;52.726;-2.108;2023-03-04T02:44:31;102191.84;;;4.27;73.69
28935;BME280;16044;52.726;-2.108;2023-03-04T02:47:01;102181.25;;;4.25;73.83
28935;BME280;16044;52.726;-2.108;2023-03-04T02:49:30;102185.63;;;4.26;73.78
28935;BME280;16044;52.726;-2.108;2023-03-04T02:54:32;102172.31;;;4.25;74.33
28935;BME280;16044;52.726;-2.108;2023-03-04T02:57:01;102166.66;;;4.29;74.02
28935;BME280;16044;52.726;-2.108;2023-03-04T02:59:29;102164.75;;;4.32;73.87
28935;BME280;16044;52.726;-2.108;2023-03-04T03:01:57;102164.84;;;4.30;73.65
28935;BME280;16044;52.726;-2.108;2023-03-04T03:04:24;102168.59;;;4.27;73.61
28935;BME280;16044;52.726;-2.108;2023-03-04T03:06:52;102161.56;;;4.25;73.93
28935;BME280;16044;52.726;-2.108;2023-03-04T03:09:19;102159.94;;;4.22;74.22
28935;BME280;16044;52.726;-2.108;2023-03-04T03:11:46;102163.91;;;4.31;74.08
28935;BME280;16044;52.726;-2.108;2023-03-04T03:14:14;102165.69;;;4.30;73.91
28935;BME280;16044;52.726;-2.108;2023-03-04T03:16:40;102161.38;;;4.28;74.32
28935;BME280;16044;52.726;-2.108;2023-03-04T03:19:08;102163.00;;;4.30;74.30
28935;BME280;16044;52.726;-2.108;2023-03-04T03:21:35;102160.41;;;4.29;74.25
28935;BME280;16044;52.726;-2.108;2023-03-04T03:24:02;102155.25;;;4.26;74.54
28935;BME280;16044;52.726;-2.108;2023-03-04T03:26:29;102153.41;;;4.26;74.63
28935;BME280;16044;52.726;-2.108;2023-03-04T03:28:56;102151.72;;;4.25;74.88
28935;BME280;16044;52.726;-2.108;2023-03-04T03:31:23;102143.53;;;4.27;74.87
28935;BME280;16044;52.726;-2.108;2023-03-04T03:33:50;102150.81;;;4.25;75.06
28935;BME280;16044;52.726;-2.108;2023-03-04T03:36:17;102148.06;;;4.26;74.72
28935;BME280;16044;52.726;-2.108;2023-03-04T03:38:43;102151.88;;;4.22;75.04
28935;BME280;16044;52.726;-2.108;2023-03-04T03:41:10;102148.22;;;4.23;74.89
28935;BME280;16044;52.726;-2.108;2023-03-04T03:43:37;102145.66;;;4.22;74.99
28935;BME280;16044;52.726;-2.108;2023-03-04T03:46:04;102149.28;;;4.21;74.95
28935;BME280;16044;52.726;-2.108;2023-03-04T03:48:31;102146.78;;;4.18;75.04
28935;BME280;16044;52.726;-2.108;2023-03-04T03:50:58;102138.94;;;4.15;74.83
28935;BME280;16044;52.726;-2.108;2023-03-04T03:53:25;102147.47;;;4.21;74.71
28935;BME280;16044;52.726;-2.108;2023-03-04T03:55:51;102149.28;;;4.21;74.79
28935;BME280;16044;52.726;-2.108;2023-03-04T03:58:19;102143.16;;;4.19;74.87
28935;BME280;16044;52.726;-2.108;2023-03-04T04:00:45;102145.66;;;4.22;75.00
28935;BME280;16044;52.726;-2.108;2023-03-04T04:03:15;102145.16;;;4.15;75.37
28935;BME280;16044;52.726;-2.108;2023-03-04T04:05:43;102143.56;;;4.13;75.66
28935;BME280;16044;52.726;-2.108;2023-03-04T04:08:15;102139.88;;;4.14;75.21
28935;BME280;16044;52.726;-2.108;2023-03-04T04:10:43;102137.19;;;4.14;75.02
28935;BME280;16044;52.726;-2.108;2023-03-04T04:13:10;102138.75;;;4.18;74.99
28935;BME280;16044;52.726;-2.108;2023-03-04T04:15:38;102139.81;;;4.15;75.01
28935;BME280;16044;52.726;-2.108;2023-03-04T04:18:05;102144.31;;;4.15;75.21
28935;BME280;16044;52.726;-2.108;2023-03-04T04:20:33;102135.50;;;4.13;74.71
28935;BME280;16044;52.726;-2.108;2023-03-04T04:23:01;102139.03;;;4.13;74.55
28935;BME280;16044;52.726;-2.108;2023-03-04T04:25:28;102137.19;;;4.14;74.62
28935;BME280;16044;52.726;-2.108;2023-03-04T04:27:55;102139.81;;;4.15;74.58
28935;BME280;16044;52.726;-2.108;2023-03-04T04:30:22;102142.41;;;4.17;74.67
28935;BME280;16044;52.726;-2.108;2023-03-04T04:32:50;102140.88;;;4.13;74.36
28935;BME280;16044;52.726;-2.108;2023-03-04T04:35:17;102145.25;;;4.14;74.06
28935;BME280;16044;52.726;-2.108;2023-03-04T04:37:46;102151.59;;;4.13;74.05
28935;BME280;16044;52.726;-2.108;2023-03-04T04:40:12;102150.75;;;4.12;74.31
28935;BME280;16044;52.726;-2.108;2023-03-04T04:42:39;102151.38;;;4.16;74.19
28935;BME280;16044;52.726;-2.108;2023-03-04T04:45:07;102146.78;;;4.18;74.45
28935;BME280;16044;52.726;-2.108;2023-03-04T04:47:34;102156.13;;;4.12;74.77
28935;BME280;16044;52.726;-2.108;2023-03-04T04:50:01;102153.31;;;4.14;74.35
28935;BME280;16044;52.726;-2.108;2023-03-04T04:52:28;102157.91;;;4.12;74.36
28935;BME280;16044;52.726;-2.108;2023-03-04T04:54:55;102150.91;;;4.09;74.56
28935;BME280;16044;52.726;-2.108;2023-03-04T04:57:22;102155.22;;;4.12;74.48
28935;BME280;16044;52.726;-2.108;2023-03-04T04:59:49;102161.47;;;4.12;74.43
28935;BME280;16044;52.726;-2.108;2023-03-04T05:02:16;102163.56;;;4.07;74.33
28935;BME280;16044;52.726;-2.108;2023-03-04T05:04:43;102164.25;;;4.10;74.38
28935;BME280;16044;52.726;-2.108;2023-03-04T05:07:10;102159.06;;;4.07;74.53
28935;BME280;16044;52.726;-2.108;2023-03-04T05:09:37;102151.88;;;4.08;74.65
28935;BME280;16044;52.726;-2.108;2023-03-04T05:12:04;102161.56;;;4.10;74.51
28935;BME280;16044;52.726;-2.108;2023-03-04T05:14:31;102157.13;;;4.09;74.64
28935;BME280;16044;52.726;-2.108;2023-03-04T05:16:57;102162.72;;;4.06;74.65
28935;BME280;16044;52.726;-2.108;2023-03-04T05:19:24;102166.84;;;4.12;73.91
28935;BME280;16044;52.726;-2.108;2023-03-04T05:21:51;102166.34;;;4.05;74.46
28935;BME280;16044;52.726;-2.108;2023-03-04T05:24:18;102168.09;;;4.06;74.48
28935;BME280;16044;52.726;-2.108;2023-03-04T05:26:46;102164.44;;;4.07;74.60
28935;BME280;16044;52.726;-2.108;2023-03-04T05:29:12;102160.97;;;4.05;75.02
28935;BME280;16044;52.726;-2.108;2023-03-04T05:31:39;102168.09;;;4.06;75.03
28935;BME280;16044;52.726;-2.108;2023-03-04T05:34:06;102172.00;;;4.01;74.68
28935;BME280;16044;52.726;-2.108;2023-03-04T05:36:33;102173.63;;;4.03;74.18
28935;BME280;16044;52.726;-2.108;2023-03-04T05:38:59;102180.91;;;4.01;74.48
28935;BME280;16044;52.726;-2.108;2023-03-04T05:41:26;102180.06;;;4.01;74.19
28935;BME280;16044;52.726;-2.108;2023-03-04T05:43:53;102176.47;;;4.00;74.65
28935;BME280;16044;52.726;-2.108;2023-03-04T05:46:20;102180.81;;;4.03;74.65
28935;BME280;16044;52.726;-2.108;2023-03-04T05:48:52;102178.31;;;4.00;74.44
28935;BME280;16044;52.726;-2.108;2023-03-04T05:51:21;102175.53;;;4.01;74.68
28935;BME280;16044;52.726;-2.108;2023-03-04T05:53:49;102171.88;;;4.02;74.54
28935;BME280;16044;52.726;-2.108;2023-03-04T05:56:18;102174.78;;;3.99;74.74
28935;BME280;16044;52.726;-2.108;2023-03-04T05:58:46;102173.13;;;3.97;74.58
28935;BME280;16044;52.726;-2.108;2023-03-04T06:01:14;102179.38;;;3.97;74.09
28935;BME280;16044;52.726;-2.108;2023-03-04T06:03:41;102168.72;;;3.96;74.29
28935;BME280;16044;52.726;-2.108;2023-03-04T06:06:10;102172.25;;;3.96;74.35
28935;BME280;16044;52.726;-2.108;2023-03-04T06:08:37;102173.13;;;3.97;74.46
28935;BME280;16044;52.726;-2.108;2023-03-04T06:11:04;102172.25;;;3.96;74.48
28935;BME280;16044;52.726;-2.108;2023-03-04T06:13:32;102173.22;;;3.95;74.48
28935;BME280;16044;52.726;-2.108;2023-03-04T06:16:00;102174.16;;;3.94;74.08
28935;BME280;16044;52.726;-2.108;2023-03-04T06:18:27;102174.16;;;3.94;74.33
28935;BME280;16044;52.726;-2.108;2023-03-04T06:21:00;102174.34;;;3.91;74.19
28935;BME280;16044;52.726;-2.108;2023-03-04T06:23:29;102177.22;;;3.88;74.22
28935;BME280;16044;52.726;-2.108;2023-03-04T06:25:58;102179.03;;;3.87;73.84
28935;BME280;16044;52.726;-2.108;2023-03-04T06:28:26;102181.81;;;3.86;73.82
28935;BME280;16044;52.726;-2.108;2023-03-04T06:30:54;102188.91;;;3.87;73.56
28935;BME280;16044;52.726;-2.108;2023-03-04T06:33:22;102187.19;;;3.86;73.82
28935;BME280;16044;52.726;-2.108;2023-03-04T06:35:53;102192.66;;;3.84;73.04
28935;BME280;16044;52.726;-2.108;2023-03-04T06:38:22;102193.00;;;3.78;72.97
28935;BME280;16044;52.726;-2.108;2023-03-04T06:40:49;102185.63;;;3.82;73.08
28935;BME280;16044;52.726;-2.108;2023-03-04T06:43:17;102188.41;;;3.80;73.23
28935;BME280;16044;52.726;-2.108;2023-03-04T06:45:44;102195.13;;;3.87;73.26
28935;BME280;16044;52.726;-2.108;2023-03-04T06:48:11;102193.31;;;3.88;73.06
28935;BME280;16044;52.726;-2.108;2023-03-04T06:50:39;102193.41;;;3.86;73.08
28935;BME280;16044;52.726;-2.108;2023-03-04T06:53:06;102196.09;;;3.86;73.21
28935;BME280;16044;52.726;-2.108;2023-03-04T06:55:33;102190.81;;;3.85;73.19
28935;BME280;16044;52.726;-2.108;2023-03-04T06:58:00;102197.72;;;3.89;72.94
28935;BME280;16044;52.726;-2.108;2023-03-04T07:00:27;102205.00;;;3.87;73.16
28935;BME280;16044;52.726;-2.108;2023-03-04T07:02:54;102205.00;;;3.87;73.30
28935;BME280;16044;52.726;-2.108;2023-03-04T07:05:21;102207.50;;;3.90;72.82
28935;BME280;16044;52.726;-2.108;2023-03-04T07:07:47;102210.38;;;3.87;73.13
28935;BME280;16044;52.726;-2.108;2023-03-04T07:10:17;102217.47;;;3.88;73.44
28935;BME280;16044;52.726;-2.108;2023-03-04T07:12:44;102217.81;;;3.82;73.96
28935;BME280;16044;52.726;-2.108;2023-03-04T07:15:11;102219.19;;;3.89;73.56
28935;BME280;16044;52.726;-2.108;2023-03-04T07:17:39;102217.38;;;3.89;73.83
28935;BME280;16044;52.726;-2.108;2023-03-04T07:20:08;102212.88;;;3.90;73.88
28935;BME280;16044;52.726;-2.108;2023-03-04T07:22:35;102218.84;;;3.95;73.63
28935;BME280;16044;52.726;-2.108;2023-03-04T07:25:03;102211.06;;;3.90;74.07
28935;BME280;16044;52.726;-2.108;2023-03-04T07:27:31;102218.25;;;3.90;74.31
28935;BME280;16044;52.726;-2.108;2023-03-04T07:29:58;102225.16;;;3.94;74.29
28935;BME280;16044;52.726;-2.108;2023-03-04T07:32:25;102221.63;;;3.94;74.36
28935;BME280;16044;52.726;-2.108;2023-03-04T07:34:52;102216.94;;;3.97;74.24
28935;BME280;16044;52.726;-2.108;2023-03-04T07:37:19;102222.09;;;4.00;74.37
28935;BME280;16044;52.726;-2.108;2023-03-04T07:39:46;102215.56;;;3.90;74.71
28935;BME280;16044;52.726;-2.108;2023-03-04T07:42:13;102219.63;;;3.97;74.56
28935;BME280;16044;52.726;-2.108;2023-03-04T07:44:40;102219.00;;;3.92;74.56
28935;BME280;16044;52.726;-2.108;2023-03-04T07:47:07;102217.09;;;3.94;73.88
28935;BME280;16044;52.726;-2.108;2023-03-04T07:49:34;102215.34;;;3.93;73.75
28935;BME280;16044;52.726;-2.108;2023-03-04T07:52:04;102220.72;;;3.93;73.78
28935;BME280;16044;52.726;-2.108;2023-03-04T07:54:31;102223.22;;;3.96;73.61
28935;BME280;16044;52.726;-2.108;2023-03-04T07:56:58;102218.25;;;3.90;74.54
28935;BME280;16044;52.726;-2.108;2023-03-04T07:59:25;102211.56;;;3.97;74.30
28935;BME280;16044;52.726;-2.108;2023-03-04T08:01:52;102216.63;;;4.02;74.15
28935;BME280;16044;52.726;-2.108;2023-03-04T08:04:19;102217.41;;;4.04;74.29
28935;BME280;16044;52.726;-2.108;2023-03-04T08:06:46;102215.50;;;4.06;74.37
28935;BME280;16044;52.726;-2.108;2023-03-04T08:09:14;102215.59;;;4.04;74.73
28935;BME280;16044;52.726;-2.108;2023-03-04T08:11:41;102222.00;;;4.02;75.04
28935;BME280;16044;52.726;-2.108;2023-03-04T08:14:10;102220.88;;;4.06;75.25
28935;BME280;16044;52.726;-2.108;2023-03-04T08:16:38;102221.53;;;4.09;75.22
28935;BME280;16044;52.726;-2.108;2023-03-04T08:19:06;102217.91;;;4.10;75.29
28935;BME280;16044;52.726;-2.108;2023-03-04T08:21:34;102234.41;;;4.19;75.21
28935;BME280;16044;52.726;-2.108;2023-03-04T08:24:02;102225.78;;;4.14;75.49
28935;BME280;16044;52.726;-2.108;2023-03-04T08:26:37;102227.31;;;4.18;75.59
28935;BME280;16044;52.726;-2.108;2023-03-04T08:29:09;102229.81;;;4.21;75.52
28935;BME280;16044;52.726;-2.108;2023-03-04T08:31:39;102218.22;;;4.20;75.35
28935;BME280;16044;52.726;-2.108;2023-03-04T08:34:07;102222.16;;;4.15;74.77
28935;BME280;16044;52.726;-2.108;2023-03-04T08:36:36;102234.59;;;4.16;74.34
28935;BME280;16044;52.726;-2.108;2023-03-04T08:39:03;102225.88;;;4.12;74.08
28935;BME280;16044;52.726;-2.108;2023-03-04T08:41:31;102230.88;;;4.18;73.42
28935;BME280;16044;52.726;-2.108;2023-03-04T08:43:59;102228.44;;;4.14;73.63
28935;BME280;16044;52.726;-2.108;2023-03-04T08:46:27;102230.81;;;4.04;73.37
28935;BME280;16044;52.726;-2.108;2023-03-04T08:48:55;102227.59;;;4.13;73.10
28935;BME280;16044;52.726;-2.108;2023-03-04T08:51:22;102227.78;;;4.10;72.97
28935;BME280;16044;52.726;-2.108;2023-03-04T08:53:49;102226.53;;;4.16;73.48
28935;BME280;16044;52.726;-2.108;2023-03-04T08:56:16;102227.03;;;4.22;73.28
28935;BME280;16044;52.726;-2.108;2023-03-04T08:58:43;102227.13;;;4.21;73.65
28935;BME280;16044;52.726;-2.108;2023-03-04T09:01:12;102235.09;;;4.22;73.56
28935;BME280;16044;52.726;-2.108;2023-03-04T09:03:40;102223.38;;;4.23;73.94
28935;BME280;16044;52.726;-2.108;2023-03-04T09:06:09;102222.16;;;4.29;73.54
28935;BME280;16044;52.726;-2.108;2023-03-04T09:08:39;102219.38;;;4.30;73.60
28935;BME280;16044;52.726;-2.108;2023-03-04T09:11:06;102214.22;;;4.27;73.41
28935;BME280;16044;52.726;-2.108;2023-03-04T09:13:34;102221.13;;;4.32;73.21
28935;BME280;16044;52.726;-2.108;2023-03-04T09:16:01;102214.91;;;4.31;73.38
28935;BME280;16044;52.726;-2.108;2023-03-04T09:18:28;102220.06;;;4.34;73.46
28935;BME280;16044;52.726;-2.108;2023-03-04T09:20:55;102217.47;;;4.33;72.75
28935;BME280;16044;52.726;-2.108;2023-03-04T09:23:22;102221.13;;;4.32;71.50
28935;BME280;16044;52.726;-2.108;2023-03-04T09:25:49;102222.47;;;4.39;71.08
28935;BME280;16044;52.726;-2.108;2023-03-04T09:28:18;102219.69;;;4.40;70.83
28935;BME280;16044;52.726;-2.108;2023-03-04T09:30:45;102221.41;;;4.41;71.01
28935;BME280;16044;52.726;-2.108;2023-03-04T09:33:13;102228.72;;;4.39;70.78
28935;BME280;16044;52.726;-2.108;2023-03-04T09:35:40;102225.47;;;4.48;70.32
28935;BME280;16044;52.726;-2.108;2023-03-04T09:38:08;102229.84;;;4.49;69.69
28935;BME280;16044;52.726;-2.108;2023-03-04T09:40:44;102239.66;;;4.51;69.66
28935;BME280;16044;52.726;-2.108;2023-03-04T09:43:25;102229.69;;;4.53;69.55
28935;BME280;16044;52.726;-2.108;2023-03-04T09:45:57;102235.03;;;4.53;69.86
28935;BME280;16044;52.726;-2.108;2023-03-04T09:48:29;102227.59;;;4.58;69.50
28935;BME280;16044;52.726;-2.108;2023-03-04T09:56:58;102229.50;;;4.56;69.78
28935;BME280;16044;52.726;-2.108;2023-03-04T09:59:34;102219.41;;;4.59;69.91
28935;BME280;16044;52.726;-2.108;2023-03-04T10:02:43;102217.00;;;4.55;70.08
28935;BME280;16044;52.726;-2.108;2023-03-04T10:05:31;102214.53;;;4.66;69.81
28935;BME280;16044;52.726;-2.108;2023-03-04T10:10:57;102218.66;;;4.72;69.67
28935;BME280;16044;52.726;-2.108;2023-03-04T10:13:38;102215.38;;;4.81;68.47
28935;BME280;16044;52.726;-2.108;2023-03-04T10:16:10;102214.63;;;4.79;68.20
28935;BME280;16044;52.726;-2.108;2023-03-04T10:18:49;102208.59;;;4.75;68.34
28935;BME280;16044;52.726;-2.108;2023-03-04T10:21:34;102205.88;;;4.89;67.59
28935;BME280;16044;52.726;-2.108;2023-03-04T10:24:15;102204.81;;;4.92;68.04
28935;BME280;16044;52.726;-2.108;2023-03-04T10:26:45;102207.22;;;4.97;67.75
28935;BME280;16044;52.726;-2.108;2023-03-04T10:29:19;102214.09;;;5.01;67.00
28935;BME280;16044;52.726;-2.108;2023-03-04T10:31:48;102206.16;;;4.99;67.19
28935;BME280;16044;52.726;-2.108;2023-03-04T10:34:16;102211.31;;;5.02;67.04
28935;BME280;16044;52.726;-2.108;2023-03-04T10:39:34;102202.00;;;5.08;66.27
28935;BME280;16044;52.726;-2.108;2023-03-04T10:44:56;102210.66;;;5.13;65.36
28935;BME280;16044;52.726;-2.108;2023-03-04T10:47:29;102198.94;;;5.14;66.16
28935;BME280;16044;52.726;-2.108;2023-03-04T10:49:59;102203.16;;;5.18;65.79
28935;BME280;16044;52.726;-2.108;2023-03-04T10:55:14;102200.63;;;5.30;65.26
28935;BME280;16044;52.726;-2.108;2023-03-04T10:57:47;102195.78;;;5.35;65.60
28935;BME280;16044;52.726;-2.108;2023-03-04T11:02:46;102196.38;;;5.40;65.55
28935;BME280;16044;52.726;-2.108;2023-03-04T11:07:48;102194.81;;;5.50;65.29
28935;BME280;16044;52.726;-2.108;2023-03-04T11:13:06;102191.13;;;5.51;64.53
28935;BME280;16044;52.726;-2.108;2023-03-04T11:16:01;102184.75;;;5.39;63.72
28935;BME280;16044;52.726;-2.108;2023-03-04T11:18:41;102187.03;;;5.45;63.90
28935;BME280;16044;52.726;-2.108;2023-03-04T11:21:19;102181.00;;;5.42;64.15
28935;BME280;16044;52.726;-2.108;2023-03-04T11:24:00;102183.38;;;5.46;64.15
28935;BME280;16044;52.726;-2.108;2023-03-04T11:26:44;102177.78;;;5.50;64.27
28935;BME280;16044;52.726;-2.108;2023-03-04T11:32:23;102191.13;;;5.51;64.11
28935;BME280;16044;52.726;-2.108;2023-03-04T11:38:05;102174.16;;;5.51;64.38
28935;BME280;16044;52.726;-2.108;2023-03-04T11:41:15;102172.88;;;5.56;64.60
28935;BME280;16044;52.726;-2.108;2023-03-04T11:43:46;102176.75;;;5.65;64.34
28935;BME280;16044;52.726;-2.108;2023-03-04T12:00:46;102148.56;;;5.71;62.25
28935;BME280;16044;52.726;-2.108;2023-03-04T12:06:43;102139.22;;;5.76;62.21
28935;BME280;16044;52.726;-2.108;2023-03-04T12:26:38;102110.16;;;5.69;62.01
28935;BME280;16044;52.726;-2.108;2023-03-04T12:35:18;102109.84;;;5.60;62.84
28935;BME280;16044;52.726;-2.108;2023-03-04T12:38:11;102110.03;;;5.44;63.54
28935;BME280;16044;52.726;-2.108;2023-03-04T12:52:04;102100.72;;;5.36;64.22
28935;BME280;16044;52.726;-2.108;2023-03-04T12:55:13;102094.19;;;5.40;64.99
28935;BME280;16044;52.726;-2.108;2023-03-04T12:57:42;102103.56;;;5.47;64.57
28935;BME280;16044;52.726;-2.108;2023-03-04T13:06:02;102094.75;;;5.45;64.99
28935;BME280;16044;52.726;-2.108;2023-03-04T13:14:24;102078.16;;;5.38;66.55
28935;BME280;16044;52.726;-2.108;2023-03-04T13:28:23;102081.41;;;5.56;64.84
28935;BME280;16044;52.726;-2.108;2023-03-04T13:41:15;102054.66;;;5.80;62.08
28935;BME280;16044;52.726;-2.108;2023-03-04T13:43:51;102045.50;;;5.83;62.77
28935;BME280;16044;52.726;-2.108;2023-03-04T13:51:38;102040.22;;;5.94;61.23
28935;BME280;16044;52.726;-2.108;2023-03-04T13:54:23;102037.31;;;5.84;61.71
28935;BME280;16044;52.726;-2.108;2023-03-04T13:59:43;102029.91;;;5.88;62.04
28935;BME280;16044;52.726;-2.108;2023-03-04T14:02:16;102024.19;;;5.93;61.99
28935;BME280;16044;52.726;-2.108;2023-03-04T14:04:55;102018.16;;;5.89;62.17
28935;BME280;16044;52.726;-2.108;2023-03-04T14:07:32;102017.09;;;5.79;62.20
28935;BME280;16044;52.726;-2.108;2023-03-04T14:10:22;102009.97;;;5.91;61.17
28935;BME280;16044;52.726;-2.108;2023-03-04T14:12:52;102014.09;;;5.96;61.88
28935;BME280;16044;52.726;-2.108;2023-03-04T14:15:27;102012.34;;;5.95;61.63
28935;BME280;16044;52.726;-2.108;2023-03-04T14:17:57;102013.00;;;5.99;61.87
28935;BME280;16044;52.726;-2.108;2023-03-04T14:20:31;102014.09;;;5.96;61.77
28935;BME280;16044;52.726;-2.108;2023-03-04T14:26:10;102006.00;;;5.96;61.59
28935;BME280;16044;52.726;-2.108;2023-03-04T14:28:52;101998.56;;;5.87;61.17
28935;BME280;16044;52.726;-2.108;2023-03-04T14:31:24;101994.28;;;5.97;60.95
28935;BME280;16044;52.726;-2.108;2023-03-04T14:33:58;101987.59;;;5.90;61.54
28935;BME280;16044;52.726;-2.108;2023-03-04T14:36:33;101980.06;;;5.95;61.55
28935;BME280;16044;52.726;-2.108;2023-03-04T14:39:04;101986.97;;;5.99;61.51
28935;BME280;16044;52.726;-2.108;2023-03-04T14:41:38;101983.28;;;6.00;61.05
28935;BME280;16044;52.726;-2.108;2023-03-04T14:44:40;101984.38;;;5.98;61.71
28935;BME280;16044;52.726;-2.108;2023-03-04T14:49:59;101974.75;;;6.07;61.86
28935;BME280;16044;52.726;-2.108;2023-03-04T14:52:34;101978.44;;;6.05;62.26
28935;BME280;16044;52.726;-2.108;2023-03-04T14:57:41;101983.28;;;6.00;62.00
28935;BME280;16044;52.726;-2.108;2023-03-04T15:02:51;101979.28;;;5.93;61.49
28935;BME280;16044;52.726;-2.108;2023-03-04T15:05:45;101971.34;;;5.92;61.84
28935;BME280;16044;52.726;-2.108;2023-03-04T15:10:59;101968.22;;;5.85;61.93
28935;BME280;16044;52.726;-2.108;2023-03-04T15:16:18;101974.91;;;5.79;62.04
28935;BME280;16044;52.726;-2.108;2023-03-04T15:19:01;101968.56;;;5.68;62.12
28935;BME280;16044;52.726;-2.108;2023-03-04T15:21:36;101959.50;;;5.69;62.23
28935;BME280;16044;52.726;-2.108;2023-03-04T15:24:09;101958.31;;;5.73;62.30
28935;BME280;16044;52.726;-2.108;2023-03-04T15:26:40;101963.63;;;5.61;62.45
28935;BME280;16044;52.726;-2.108;2023-03-04T15:29:14;101955.97;;;5.68;62.56
28935;BME280;16044;52.726;-2.108;2023-03-04T15:31:44;101948.88;;;5.54;62.81
28935;BME280;16044;52.726;-2.108;2023-03-04T15:34:16;101949.94;;;5.64;62.12
28935;BME280;16044;52.726;-2.108;2023-03-04T15:36:46;101954.25;;;5.54;61.94